Time;durP1;ratioP1;P1;durP2;ratioP2;P2;SDS_P1;SDS_P2;PMS_P1;PMS_P2;Temp;Humidity;BMP_temperature;BMP_pressure;BME280_temperature;BME280_humidity;BME280_pressure;Samples;Min_cycle;Max_cycle;Signal;HPM_P1;HPM_P2
2022/05/29 04:00:11;;;;;;;4.17;2.63;;;12.10;99.90;;;;;;6083892;23;20395;31
2022/05/29 04:02:40;;;;;;;5.60;3.13;;;11.80;99.90;;;;;;4954525;29;20467;-64
2022/05/29 04:05:07;;;;;;;3.17;2.97;;;11.70;99.90;;;;;;4956170;28;20907;-63
2022/05/29 04:13:04;;;;;;;9.83;2.67;;;11.60;99.90;;;;;;4956083;29;20506;-63
2022/05/29 04:15:31;;;;;;;4.50;2.90;;;11.60;99.90;;;;;;4955965;29;20460;-63
2022/05/29 04:17:59;;;;;;;2.90;2.63;;;11.50;99.90;;;;;;4956155;28;20462;-63
2022/05/29 04:20:26;;;;;;;2.80;2.60;;;11.50;99.90;;;;;;4955947;28;20797;-64
2022/05/29 04:22:53;;;;;;;3.60;2.67;;;11.50;99.90;;;;;;4955919;29;20577;-63
2022/05/29 04:25:19;;;;;;;3.57;3.17;;;11.50;99.90;;;;;;4956080;29;20507;-63
2022/05/29 04:27:46;;;;;;;6.30;2.80;;;11.50;99.90;;;;;;4955918;29;20459;-63
2022/05/29 04:30:13;;;;;;;6.00;2.57;;;11.50;99.90;;;;;;4955561;28;20460;-63
2022/05/29 04:35:26;;;;;;;2.13;1.93;;;11.60;99.90;;;;;;4955874;29;20467;-63
2022/05/29 04:37:53;;;;;;;2.67;2.47;;;11.70;99.90;;;;;;4955821;29;20455;-63
2022/05/29 04:40:19;;;;;;;5.93;2.10;;;11.80;99.90;;;;;;4955528;28;20467;-63
2022/05/29 04:42:46;;;;;;;2.60;2.40;;;11.80;99.90;;;;;;4955815;29;20455;-63
2022/05/29 04:45:13;;;;;;;3.33;2.27;;;11.90;99.90;;;;;;4955689;29;20451;-63
2022/05/29 04:47:40;;;;;;;6.30;2.53;;;11.90;99.90;;;;;;4955672;28;20487;-63
2022/05/29 04:50:07;;;;;;;3.43;2.40;;;11.90;99.90;;;;;;4955631;29;20462;-63
2022/05/29 04:52:36;;;;;;;2.50;2.30;;;11.80;99.90;;;;;;4955656;28;20507;-63
2022/05/29 04:55:04;;;;;;;2.00;1.90;;;11.80;99.90;;;;;;4955511;29;20551;-63
2022/05/29 04:57:30;;;;;;;3.97;2.27;;;11.80;99.90;;;;;;4956319;28;20463;-64
2022/05/29 04:59:58;;;;;;;3.47;2.27;;;11.80;99.90;;;;;;4955545;29;20463;-63
2022/05/29 05:02:25;;;;;;;3.03;2.50;;;11.90;99.90;;;;;;4957287;28;20494;-63
2022/05/29 05:04:52;;;;;;;3.83;2.50;;;12.00;99.90;;;;;;4960346;28;20456;-63
2022/05/29 05:07:18;;;;;;;4.13;2.33;;;12.10;99.90;;;;;;4958797;29;20969;-63
2022/05/29 05:09:48;;;;;;;2.47;2.23;;;12.10;99.90;;;;;;4959044;29;20463;-63
2022/05/29 05:12:15;;;;;;;2.43;2.20;;;12.20;99.90;;;;;;4958880;28;20475;-63
2022/05/29 05:14:42;;;;;;;2.20;2.10;;;12.30;99.90;;;;;;4959308;29;20479;-63
2022/05/29 05:17:09;;;;;;;2.10;2.00;;;12.40;99.90;;;;;;4959020;29;20506;-64
2022/05/29 05:19:35;;;;;;;3.73;2.33;;;12.50;99.90;;;;;;4958722;28;20454;-64
2022/05/29 05:22:03;;;;;;;3.50;1.97;;;12.60;99.90;;;;;;4958916;28;20526;-64
2022/05/29 05:24:30;;;;;;;3.00;2.60;;;12.70;99.90;;;;;;4958488;29;20940;-63
2022/05/29 05:26:59;;;;;;;3.63;2.10;;;12.90;99.90;;;;;;4959123;29;20461;-65
2022/05/29 05:29:26;;;;;;;3.43;2.20;;;13.20;99.90;;;;;;4958753;28;20490;-64
2022/05/29 05:31:52;;;;;;;2.23;2.00;;;13.30;99.90;;;;;;4958636;28;20490;-63
2022/05/29 05:34:19;;;;;;;2.70;2.33;;;13.30;99.90;;;;;;4958642;29;20502;-64
2022/05/29 05:36:46;;;;;;;2.30;2.00;;;13.40;99.90;;;;;;4958630;29;20460;-64
2022/05/29 05:39:13;;;;;;;3.33;2.00;;;13.60;99.90;;;;;;4958508;29;20491;-64
2022/05/29 05:41:39;;;;;;;2.80;2.03;;;13.70;99.90;;;;;;4958642;28;20482;-63
2022/05/29 05:44:07;;;;;;;2.10;1.83;;;13.80;99.90;;;;;;4958611;29;20825;-64
2022/05/29 05:46:34;;;;;;;2.80;2.20;;;13.80;99.90;;;;;;4958221;29;20824;-64
2022/05/29 05:49:01;;;;;;;6.93;2.37;;;13.80;99.90;;;;;;4958168;29;20939;-63
2022/05/29 05:51:27;;;;;;;2.93;2.20;;;14.10;99.90;;;;;;4958268;28;20475;-63
2022/05/29 05:53:54;;;;;;;3.40;2.30;;;14.20;99.90;;;;;;4958561;29;20484;-63
2022/05/29 05:56:21;;;;;;;2.10;1.90;;;14.30;99.90;;;;;;4958305;29;20460;-64
2022/05/29 05:58:48;;;;;;;2.43;2.23;;;14.00;99.90;;;;;;4958106;29;20474;-64
2022/05/29 06:01:17;;;;;;;3.80;2.57;;;13.90;99.90;;;;;;4957762;28;20483;-64
2022/05/29 06:03:45;;;;;;;2.87;1.87;;;13.80;99.90;;;;;;4958956;29;20456;-64
2022/05/29 06:06:12;;;;;;;4.97;2.17;;;13.70;99.90;;;;;;4958042;28;20462;-63
2022/05/29 06:08:39;;;;;;;2.60;2.27;;;13.70;99.90;;;;;;4957962;29;20519;-63
2022/05/29 06:11:06;;;;;;;4.00;2.03;;;13.80;99.90;;;;;;4957783;28;20476;-63
2022/05/29 06:13:33;;;;;;;3.00;2.70;;;13.80;99.90;;;;;;4957909;28;20483;-63
2022/05/29 06:16:01;;;;;;;1.80;1.60;;;13.70;99.90;;;;;;4957485;28;20462;-63
2022/05/29 06:18:29;;;;;;;3.33;2.00;;;13.70;99.90;;;;;;4957870;29;20460;-64
2022/05/29 06:21:00;;;;;;;2.30;1.70;;;14.00;99.90;;;;;;4957658;28;20479;-63
2022/05/29 06:23:27;;;;;;;3.17;1.70;;;14.20;99.90;;;;;;4957653;29;20515;-63
2022/05/29 06:25:54;;;;;;;4.10;1.70;;;14.50;99.90;;;;;;4957601;29;20456;-64
2022/05/29 06:28:21;;;;;;;5.63;2.00;;;14.70;99.90;;;;;;4957556;29;20456;-64
2022/05/29 06:30:47;;;;;;;2.77;2.03;;;14.80;99.90;;;;;;4957533;28;20509;-64
2022/05/29 06:33:14;;;;;;;2.97;2.00;;;15.00;99.90;;;;;;4957501;29;20459;-64
2022/05/29 06:35:42;;;;;;;2.60;2.10;;;15.30;99.90;;;;;;4957656;29;20542;-63
2022/05/29 06:38:09;;;;;;;2.37;1.50;;;15.60;99.90;;;;;;4957794;29;20448;-63
2022/05/29 06:40:35;;;;;;;4.63;2.80;;;15.70;99.90;;;;;;4957556;28;20480;-63
2022/05/29 06:43:02;;;;;;;6.03;2.20;;;15.70;99.90;;;;;;4957901;29;20459;-65
2022/05/29 06:45:29;;;;;;;4.27;2.03;;;15.90;99.90;;;;;;4957209;29;20454;-64
2022/05/29 06:47:56;;;;;;;6.00;2.10;;;16.10;99.90;;;;;;4957134;28;20546;-64
2022/05/29 06:50:23;;;;;;;2.47;1.83;;;16.00;99.90;;;;;;4956973;28;20456;-63
2022/05/29 06:52:51;;;;;;;3.40;2.33;;;16.00;99.90;;;;;;4956787;29;20459;-64
2022/05/29 06:55:18;;;;;;;1.97;1.77;;;16.00;99.90;;;;;;4956988;29;20483;-65
2022/05/29 06:57:46;;;;;;;3.83;2.27;;;16.00;99.90;;;;;;4956947;29;20511;-64
2022/05/29 07:08:31;;;;;;;3.17;1.63;;;16.90;98.70;;;;;;4956980;29;20447;-64
2022/05/29 07:11:02;;;;;;;4.03;2.30;;;16.80;98.80;;;;;;4956565;28;21041;-63
2022/05/29 07:13:31;;;;;;;5.10;2.80;;;16.60;97.50;;;;;;4957043;29;20444;-64
2022/05/29 07:15:58;;;;;;;4.10;1.80;;;16.50;97.70;;;;;;4956676;29;20455;-64
2022/05/29 07:18:25;;;;;;;2.27;2.07;;;16.30;98.50;;;;;;4956771;29;20455;-64
2022/05/29 07:20:51;;;;;;;4.83;3.03;;;16.20;98.90;;;;;;4956460;28;20479;-63
2022/05/29 07:23:19;;;;;;;2.97;1.70;;;16.00;99.70;;;;;;4956596;29;20510;-63
2022/05/29 07:25:47;;;;;;;4.17;2.43;;;15.90;99.80;;;;;;4956496;29;20508;-64
2022/05/29 07:28:14;;;;;;;5.00;1.83;;;15.60;99.90;;;;;;4955879;28;20466;-64
2022/05/29 07:30:41;;;;;;;4.37;2.33;;;15.50;99.90;;;;;;4956373;28;20476;-64
2022/05/29 07:33:08;;;;;;;2.80;1.67;;;15.40;99.90;;;;;;4956467;29;20455;-63
2022/05/29 07:35:35;;;;;;;4.00;1.93;;;15.30;99.90;;;;;;4956319;29;20487;-64
2022/05/29 07:38:02;;;;;;;4.37;2.10;;;15.30;99.90;;;;;;4956409;29;20818;-64
2022/05/29 07:40:28;;;;;;;5.27;2.40;;;15.20;99.90;;;;;;4956805;28;20522;-64
2022/05/29 07:45:41;;;;;;;5.93;2.83;;;14.80;99.90;;;;;;4956067;29;20424;-64
2022/05/29 07:48:08;;;;;;;4.70;2.90;;;14.70;99.90;;;;;;4956401;29;20551;-63
2022/05/29 07:50:35;;;;;;;4.07;2.30;;;14.50;99.90;;;;;;4956367;28;20483;-64
2022/05/29 07:53:02;;;;;;;5.33;2.33;;;14.50;99.90;;;;;;4956387;29;20489;-64
2022/05/29 07:55:29;;;;;;;5.20;2.53;;;14.50;99.90;;;;;;4956246;29;20554;-64
2022/05/29 07:57:57;;;;;;;6.80;2.23;;;14.80;99.90;;;;;;4955834;29;20466;-64
2022/05/29 08:00:24;;;;;;;3.27;2.33;;;15.00;99.90;;;;;;4955523;28;20870;-64
2022/05/29 08:02:50;;;;;;;2.97;2.00;;;15.60;99.90;;;;;;4956060;29;20451;-64
2022/05/29 08:05:20;;;;;;;5.07;2.53;;;16.50;99.90;;;;;;4955881;29;20451;-64
2022/05/29 08:07:49;;;;;;;4.17;1.90;;;17.50;99.90;;;;;;4955898;29;20461;-64
2022/05/29 08:10:17;;;;;;;1.90;1.77;;;18.20;99.10;;;;;;4955983;28;20510;-64
2022/05/29 08:12:44;;;;;;;4.07;2.20;;;18.20;98.10;;;;;;4955919;29;20463;-64
2022/05/29 08:15:13;;;;;;;3.33;2.20;;;18.40;97.80;;;;;;4955813;29;20484;-64
2022/05/29 08:17:40;;;;;;;3.03;2.27;;;18.90;96.40;;;;;;4956018;29;20475;-64
2022/05/29 08:20:08;;;;;;;4.20;2.00;;;19.80;95.20;;;;;;4955672;29;20456;-64
2022/05/29 08:22:35;;;;;;;4.47;2.57;;;20.70;91.80;;;;;;4955359;28;20982;-63
2022/05/29 08:30:41;;;;;;;2.90;1.77;;;21.20;86.10;;;;;;4955863;28;20435;-63
2022/05/29 08:33:10;;;;;;;5.60;2.00;;;21.50;86.80;;;;;;4955832;29;20436;-64
2022/05/29 08:35:38;;;;;;;6.13;2.00;;;21.80;80.90;;;;;;4955942;29;20479;-64
2022/05/29 08:38:06;;;;;;;4.30;2.00;;;21.60;83.60;;;;;;4955609;29;20935;-64
2022/05/29 08:40:33;;;;;;;5.63;2.10;;;21.80;83.10;;;;;;4959330;28;20475;-64
2022/05/29 08:43:00;;;;;;;5.97;2.30;;;21.40;80.30;;;;;;4959657;29;20823;-63
2022/05/29 08:45:32;;;;;;;2.30;1.97;;;21.00;84.20;;;;;;4959802;29;20459;-63
2022/05/29 08:47:59;;;;;;;4.63;1.90;;;21.00;82.70;;;;;;4959748;29;20439;-64
2022/05/29 08:50:35;;;;;;;4.20;1.90;;;20.40;81.90;;;;;;4959082;28;20451;-64
2022/05/29 08:53:05;;;;;;;5.90;2.00;;;19.80;82.50;;;;;;4959543;29;20443;-64
2022/05/29 08:55:39;;;;;;;3.40;2.47;;;19.40;84.00;;;;;;4959388;29;20553;-63
2022/05/29 08:58:18;;;;;;;3.17;1.93;;;19.30;85.50;;;;;;4959776;29;20818;-64
2022/05/29 09:00:55;;;;;;;7.20;2.80;;;19.20;85.80;;;;;;4959180;28;20482;-64
2022/05/29 09:03:45;;;;;;;5.17;2.00;;;19.20;87.50;;;;;;4959326;29;20439;-63
2022/05/29 09:06:15;;;;;;;5.40;2.43;;;18.80;85.60;;;;;;4946925;29;20459;-64
2022/05/29 09:08:48;;;;;;;7.20;2.30;;;18.40;87.10;;;;;;4959094;29;20907;-64
2022/05/29 09:11:19;;;;;;;7.57;2.10;;;17.60;88.80;;;;;;4958742;28;20483;-64
2022/05/29 09:13:51;;;;;;;2.80;1.87;;;17.30;90.90;;;;;;4958996;28;20838;-63
2022/05/29 09:16:22;;;;;;;5.43;2.23;;;16.90;91.10;;;;;;4959090;29;20518;-63
2022/05/29 09:18:55;;;;;;;5.10;1.97;;;16.70;92.20;;;;;;4959230;29;20874;-63
2022/05/29 09:21:27;;;;;;;5.90;1.80;;;16.50;92.70;;;;;;4959038;28;20482;-64
2022/05/29 09:23:59;;;;;;;7.03;2.27;;;16.50;92.80;;;;;;4958968;28;20476;-64
2022/05/29 09:26:37;;;;;;;5.43;2.00;;;16.40;93.70;;;;;;4959001;29;20436;-64
2022/05/29 09:29:06;;;;;;;2.87;1.80;;;16.30;93.70;;;;;;4958712;28;20448;-63
2022/05/29 09:31:34;;;;;;;2.87;1.73;;;16.20;92.90;;;;;;4958490;28;20479;-64
2022/05/29 09:34:02;;;;;;;2.47;1.67;;;16.10;93.20;;;;;;4958919;29;20871;-64
2022/05/29 09:36:42;;;;;;;2.20;1.87;;;16.00;94.10;;;;;;4958476;29;20855;-63
2022/05/29 09:39:20;;;;;;;8.10;2.30;;;16.00;94.50;;;;;;4958882;29;20444;-64
2022/05/29 09:41:53;;;;;;;3.83;1.80;;;16.00;94.80;;;;;;4958632;28;20479;-64
2022/05/29 09:44:23;;;;;;;2.60;1.57;;;15.80;95.00;;;;;;4958348;29;20907;-63
2022/05/29 09:46:53;;;;;;;4.80;2.43;;;15.80;95.50;;;;;;4959274;29;20554;-64
2022/05/29 09:52:11;;;;;;;5.57;1.80;;;15.90;96.20;;;;;;4957584;28;20463;-64
2022/05/29 09:54:43;;;;;;;5.13;1.90;;;15.90;95.60;;;;;;4958312;29;20467;-64
2022/05/29 09:57:13;;;;;;;5.43;2.10;;;15.90;96.40;;;;;;4958347;29;20451;-64
2022/05/29 09:59:43;;;;;;;3.10;1.87;;;16.10;96.50;;;;;;4958253;29;20476;-64
2022/05/29 10:02:25;;;;;;;5.20;1.80;;;16.10;95.00;;;;;;4958004;28;20487;-64
2022/05/29 10:04:53;;;;;;;8.60;1.80;;;16.00;96.80;;;;;;4958097;29;20459;-64
2022/05/29 10:07:31;;;;;;;6.70;2.33;;;16.20;96.70;;;;;;4957843;29;20939;-64
2022/05/29 10:10:00;;;;;;;3.70;1.70;;;16.30;97.40;;;;;;4958097;29;20495;-63
2022/05/29 10:12:38;;;;;;;2.40;1.70;;;16.50;96.60;;;;;;4957713;28;20943;-64
2022/05/29 10:15:06;;;;;;;1.73;1.63;;;16.60;95.70;;;;;;4958416;28;20693;-63
2022/05/29 10:17:36;;;;;;;4.20;2.27;;;16.70;96.00;;;;;;4957896;28;20456;-64
2022/05/29 10:20:04;;;;;;;2.57;1.83;;;16.80;96.20;;;;;;4958282;29;20495;-64
2022/05/29 10:22:36;;;;;;;5.37;2.10;;;17.30;95.80;;;;;;4958055;28;20484;-64
2022/05/29 10:25:14;;;;;;;2.83;1.77;;;17.70;95.50;;;;;;4957632;29;20436;-65
2022/05/29 10:27:42;;;;;;;5.57;2.37;;;17.90;93.70;;;;;;4957813;29;20486;-65
2022/05/29 10:30:12;;;;;;;4.27;2.00;;;17.90;91.90;;;;;;4957350;29;20939;-64
2022/05/29 10:32:43;;;;;;;4.70;2.17;;;17.70;92.50;;;;;;4957760;29;20444;-63
2022/05/29 10:35:22;;;;;;;3.83;1.87;;;17.70;92.90;;;;;;4957922;29;20464;-64
2022/05/29 10:37:51;;;;;;;3.40;1.70;;;17.80;92.60;;;;;;4958154;29;20946;-63
2022/05/29 10:40:23;;;;;;;3.30;2.00;;;17.80;92.60;;;;;;4957677;28;20534;-63
2022/05/29 10:42:52;;;;;;;4.73;2.10;;;17.60;92.60;;;;;;4957525;29;20440;-64
2022/05/29 10:45:22;;;;;;;6.00;1.87;;;17.50;92.50;;;;;;4957696;29;20463;-64
2022/05/29 10:48:16;;;;;;;3.47;1.67;;;17.40;92.70;;;;;;4957369;29;20444;-63
2022/05/29 10:50:57;;;;;;;3.63;1.60;;;17.10;92.40;;;;;;4957393;28;20487;-65
2022/05/29 10:53:32;;;;;;;2.50;1.67;;;16.80;92.90;;;;;;4957074;29;20439;-64
2022/05/29 10:56:08;;;;;;;3.10;1.97;;;16.50;92.60;;;;;;4957308;29;20574;-65
2022/05/29 10:59:09;;;;;;;2.40;1.80;;;16.30;93.60;;;;;;4957282;29;20439;-63
2022/05/29 11:05:11;;;;;;;2.80;2.10;;;15.90;93.00;;;;;;4957498;29;20419;-64
2022/05/29 11:07:55;;;;;;;4.00;1.60;;;15.60;93.20;;;;;;4923828;29;20463;-64
2022/05/29 11:10:36;;;;;;;2.17;1.80;;;15.40;94.50;;;;;;4957380;28;20440;-63
2022/05/29 11:13:21;;;;;;;8.70;2.40;;;15.20;94.10;;;;;;4957289;29;20451;-63
2022/05/29 11:15:59;;;;;;;3.00;2.00;;;15.20;95.90;;;;;;4957136;29;20539;-63
2022/05/29 11:19:01;;;;;;;3.53;2.17;;;15.20;99.00;;;;;;4956989;29;20448;-64
2022/05/29 11:21:38;;;;;;;2.80;2.00;;;15.20;99.90;;;;;;4956947;28;20471;-63
2022/05/29 11:24:28;;;;;;;2.50;1.87;;;15.30;98.80;;;;;;4957032;29;21101;-63
2022/05/29 11:27:05;;;;;;;4.23;2.00;;;15.30;98.10;;;;;;4956551;29;20444;-64
2022/05/29 11:29:40;;;;;;;3.87;2.10;;;15.30;97.80;;;;;;4958665;29;20446;-63
2022/05/29 11:32:21;;;;;;;4.10;2.27;;;15.30;98.80;;;;;;4963777;28;20471;-63
2022/05/29 11:35:07;;;;;;;5.13;2.20;;;15.50;98.20;;;;;;4958595;29;20432;-63
2022/05/29 11:37:58;;;;;;;3.40;1.60;;;15.50;98.50;;;;;;4957140;29;20439;-63
2022/05/29 11:40:26;;;;;;;1.60;1.50;;;15.60;97.30;;;;;;4956528;28;20463;-63
2022/05/29 11:43:00;;;;;;;3.53;1.60;;;15.40;95.90;;;;;;4956344;29;20459;-63
2022/05/29 11:51:07;;;;;;;2.70;1.63;;;15.40;96.50;;;;;;4956644;29;20440;-64
2022/05/29 11:51:26;;;;;;;3.60;1.80;;;15.30;97.30;;;;;;4956221;28;20459;-64
2022/05/29 11:54:10;;;;;;;3.13;1.50;;;15.30;97.30;;;;;;4956423;29;20440;-63
2022/05/29 11:56:41;;;;;;;3.10;1.63;;;15.30;96.20;;;;;;4955908;29;20464;-63
2022/05/29 11:59:18;;;;;;;2.20;1.77;;;15.20;96.80;;;;;;4956024;29;20466;-63
2022/05/29 12:01:51;;;;;;;2.33;1.67;;;15.10;98.00;;;;;;4955688;28;20865;-64
2022/05/29 12:04:26;;;;;;;2.03;1.80;;;14.90;99.90;;;;;;4956205;29;20450;-64
2022/05/29 12:06:58;;;;;;;2.93;1.80;;;14.90;99.90;;;;;;4956085;28;20471;-63
2022/05/29 12:09:29;;;;;;;2.80;1.70;;;15.10;99.90;;;;;;4955849;29;20516;-64
2022/05/29 12:12:01;;;;;;;4.00;2.20;;;15.20;99.90;;;;;;4956007;28;20483;-64
2022/05/29 12:14:34;;;;;;;3.97;2.10;;;15.40;99.90;;;;;;4955216;28;20911;-64
2022/05/29 12:17:07;;;;;;;3.73;2.50;;;15.70;99.90;;;;;;4955914;29;20471;-64
2022/05/29 12:19:40;;;;;;;2.47;1.93;;;16.00;99.90;;;;;;4955919;29;20466;-64
2022/05/29 12:22:09;;;;;;;3.73;1.90;;;16.20;99.90;;;;;;4955854;28;20510;-64
2022/05/29 12:24:41;;;;;;;3.53;1.60;;;16.60;99.90;;;;;;4956480;29;20455;-64
2022/05/29 12:27:14;;;;;;;1.50;0.90;;;16.80;98.80;;;;;;4958851;29;20444;-64
2022/05/29 12:29:48;;;;;;;1.60;1.50;;;17.10;92.60;;;;;;4958458;29;20444;-65
2022/05/29 12:32:20;;;;;;;1.97;1.30;;;17.10;93.00;;;;;;4956774;28;20832;-64
2022/05/29 12:34:52;;;;;;;1.97;1.87;;;17.20;94.50;;;;;;4957172;29;20450;-64
2022/05/29 12:37:59;;;;;;;2.03;1.57;;;17.40;95.90;;;;;;4957337;28;20491;-64
2022/05/29 12:40:43;;;;;;;3.07;2.33;;;17.80;96.10;;;;;;4956669;28;20459;-64
2022/05/29 12:43:34;;;;;;;2.67;2.00;;;18.20;97.10;;;;;;4955863;29;20439;-63
2022/05/29 12:46:13;;;;;;;3.30;3.00;;;18.40;98.40;;;;;;4956022;29;20523;-63
2022/05/29 12:49:11;;;;;;;3.77;2.67;;;18.10;98.20;;;;;;4955816;29;20796;-63
2022/05/29 12:51:56;;;;;;;3.53;2.40;;;17.90;99.70;;;;;;4955963;28;20484;-64
2022/05/29 12:54:55;;;;;;;4.30;2.13;;;17.80;99.60;;;;;;4955959;29;20841;-64
2022/05/29 12:58:07;;;;;;;1.90;1.80;;;17.50;98.70;;;;;;4924406;28;20964;-64
2022/05/29 13:00:50;;;;;;;2.03;1.93;;;17.70;97.20;;;;;;4955590;28;20510;-63
2022/05/29 13:03:46;;;;;;;3.50;2.20;;;17.60;97.20;;;;;;4955259;29;20819;-64
2022/05/29 13:06:32;;;;;;;4.87;2.00;;;17.60;96.40;;;;;;4947208;28;20451;-64
2022/05/29 13:09:15;;;;;;;4.93;2.10;;;17.60;95.00;;;;;;4955467;28;20451;-64
2022/05/29 13:11:54;;;;;;;1.97;1.73;;;17.60;93.60;;;;;;4955401;28;20472;-64
2022/05/29 13:14:25;;;;;;;3.03;1.93;;;17.50;95.40;;;;;;4955525;29;20438;-64
2022/05/29 13:17:03;;;;;;;3.03;1.87;;;17.30;96.20;;;;;;4955579;29;20468;-64
2022/05/29 13:19:55;;;;;;;2.97;1.70;;;17.10;95.70;;;;;;4955610;29;20452;-64
2022/05/29 13:22:22;;;;;;;1.77;1.50;;;16.80;96.10;;;;;;4955490;28;20471;-63
2022/05/29 13:25:03;;;;;;;3.63;1.80;;;16.80;97.10;;;;;;4955316;28;20451;-63
2022/05/29 13:27:32;;;;;;;2.80;1.90;;;17.00;95.70;;;;;;4958270;28;20442;-64
2022/05/29 13:30:02;;;;;;;1.63;1.53;;;17.30;95.70;;;;;;4958693;29;20455;-63
2022/05/29 13:32:30;;;;;;;3.03;1.37;;;17.40;92.20;;;;;;4958918;28;20475;-63
2022/05/29 13:35:30;;;;;;;1.40;1.30;;;17.60;92.20;;;;;;4958636;29;20458;-64
2022/05/29 13:37:57;;;;;;;1.50;1.40;;;17.80;91.90;;;;;;4958707;28;20475;-63
2022/05/29 13:40:46;;;;;;;1.83;1.63;;;17.90;94.00;;;;;;4958125;28;20950;-63
2022/05/29 13:43:40;;;;;;;1.80;1.23;;;18.10;91.30;;;;;;4958634;28;20472;-63
2022/05/29 13:46:19;;;;;;;4.47;1.43;;;18.40;91.80;;;;;;4924037;28;20463;-64
2022/05/29 13:49:22;;;;;;;1.40;1.30;;;18.60;90.10;;;;;;4958150;29;20444;-63
2022/05/29 13:51:50;;;;;;;4.40;1.73;;;18.70;88.90;;;;;;4927368;28;20475;-63
2022/05/29 13:54:27;;;;;;;1.90;1.57;;;18.20;87.10;;;;;;4958440;29;20811;-64
2022/05/29 13:57:06;;;;;;;1.63;1.40;;;17.90;85.50;;;;;;4958346;29;20466;-63
2022/05/29 14:05:27;;;;;;;1.57;1.47;;;17.00;90.00;;;;;;4959476;29;20493;-64
2022/05/29 14:08:27;;;;;;;1.03;1.00;;;16.90;91.60;;;;;;4961304;29;20443;-66
2022/05/29 14:11:08;;;;;;;1.50;1.33;;;16.90;95.20;;;;;;4959562;28;20476;-64
2022/05/29 14:13:37;;;;;;;2.50;1.73;;;16.70;92.10;;;;;;4958587;29;20440;-66
2022/05/29 14:16:10;;;;;;;2.93;1.40;;;16.70;95.80;;;;;;4958351;29;21002;-66
2022/05/29 14:18:46;;;;;;;2.57;1.80;;;16.70;96.30;;;;;;4966326;28;20448;-66
2022/05/29 14:21:41;;;;;;;1.70;1.60;;;16.70;97.60;;;;;;4963711;28;20468;-66
2022/05/29 14:24:31;;;;;;;2.17;1.70;;;16.60;98.20;;;;;;4957730;29;20903;-66
2022/05/29 14:27:14;;;;;;;2.33;1.40;;;16.60;98.60;;;;;;4957801;29;20447;-66
2022/05/29 14:30:01;;;;;;;3.03;1.70;;;16.50;99.20;;;;;;4957599;29;20444;-66
2022/05/29 14:32:54;;;;;;;2.83;1.90;;;16.30;97.50;;;;;;4957621;28;20482;-66
2022/05/29 14:35:56;;;;;;;2.73;1.73;;;16.30;99.90;;;;;;4954888;29;20466;-67
2022/05/29 14:38:39;;;;;;;2.93;1.53;;;16.40;99.90;;;;;;4957379;28;20431;-67
2022/05/29 14:41:16;;;;;;;3.00;1.53;;;16.40;99.90;;;;;;4957555;28;20499;-67
2022/05/29 14:43:43;;;;;;;2.10;1.53;;;16.60;99.90;;;;;;4957423;29;20439;-67
2022/05/29 14:46:30;;;;;;;1.70;1.23;;;16.70;97.60;;;;;;4957346;29;20447;-66
2022/05/29 14:49:06;;;;;;;1.73;1.33;;;17.00;97.30;;;;;;4957524;28;20471;-66
2022/05/29 14:51:40;;;;;;;2.80;2.00;;;17.40;96.00;;;;;;4957981;28;20478;-65
2022/05/29 14:54:15;;;;;;;2.97;1.80;;;17.60;94.90;;;;;;4957367;29;20439;-63
2022/05/29 14:56:53;;;;;;;3.27;1.93;;;17.60;93.70;;;;;;4957014;29;20962;-63
2022/05/29 14:59:23;;;;;;;4.20;2.00;;;17.60;93.80;;;;;;4957824;29;20447;-63
2022/05/29 15:01:55;;;;;;;2.27;1.43;;;17.60;91.90;;;;;;4957189;28;20483;-63
2022/05/29 15:04:25;;;;;;;3.27;2.10;;;17.40;90.90;;;;;;4957221;29;20447;-64
2022/05/29 15:12:31;;;;;;;2.90;2.70;;;17.20;89.40;;;;;;4956590;28;20454;-63
2022/05/29 15:15:31;;;;;;;3.50;2.27;;;17.00;86.30;;;;;;4957090;29;20463;-63
2022/05/29 15:18:12;;;;;;;2.57;1.40;;;17.10;89.20;;;;;;4901556;29;20505;-63
2022/05/29 15:26:24;;;;;;;1.63;1.50;;;17.80;84.80;;;;;;4957187;29;20777;-64
2022/05/29 15:28:52;;;;;;;2.63;1.60;;;17.80;83.70;;;;;;4956610;29;20460;-62
2022/05/29 15:31:26;;;;;;;2.37;1.77;;;17.90;85.30;;;;;;4956208;28;20472;-62
2022/05/29 15:34:27;;;;;;;1.80;1.50;;;18.00;82.40;;;;;;4956824;29;20435;-62
2022/05/29 15:37:08;;;;;;;3.13;1.77;;;18.20;83.20;;;;;;4956507;28;20463;-62
2022/05/29 15:39:41;;;;;;;4.97;2.30;;;18.10;80.00;;;;;;4956420;29;20475;-63
2022/05/29 15:42:19;;;;;;;4.60;2.00;;;18.10;78.00;;;;;;4956352;28;20494;-62
2022/05/29 15:45:15;;;;;;;2.53;1.50;;;18.10;79.80;;;;;;4956049;29;20934;-63
2022/05/29 15:48:09;;;;;;;1.70;1.53;;;18.20;78.30;;;;;;4955029;28;20828;-62
2022/05/29 15:50:52;;;;;;;1.73;1.53;;;18.00;77.80;;;;;;4957015;28;20550;-63
2022/05/29 15:53:58;;;;;;;2.40;1.40;;;18.00;74.10;;;;;;4957445;29;20444;-63
2022/05/29 15:56:40;;;;;;;4.97;2.30;;;17.80;73.60;;;;;;4956927;29;20467;-63
2022/05/29 15:59:22;;;;;;;3.90;1.87;;;17.60;76.40;;;;;;4956617;29;20831;-63
2022/05/29 16:02:02;;;;;;;3.03;1.50;;;17.50;77.20;;;;;;4955847;28;20998;-63
2022/05/29 16:04:38;;;;;;;2.83;1.80;;;17.40;72.50;;;;;;4956231;29;20443;-63
2022/05/29 16:07:07;;;;;;;4.30;1.63;;;17.40;74.50;;;;;;4955906;29;20503;-63
2022/05/29 16:09:51;;;;;;;3.70;1.60;;;17.40;76.00;;;;;;4956072;29;20455;-64
2022/05/29 16:12:19;;;;;;;1.73;1.63;;;17.40;76.90;;;;;;4955928;28;20484;-63
2022/05/29 16:14:51;;;;;;;4.10;1.40;;;17.50;75.40;;;;;;4956043;29;20820;-63
2022/05/29 16:17:38;;;;;;;1.90;1.50;;;17.60;76.30;;;;;;4956274;29;20536;-63
2022/05/29 16:20:20;;;;;;;1.73;1.23;;;17.60;75.10;;;;;;4955937;29;20475;-64
2022/05/29 16:22:59;;;;;;;8.67;2.00;;;17.60;74.10;;;;;;4956000;29;20547;-66
2022/05/29 16:25:29;;;;;;;2.63;1.90;;;17.50;78.20;;;;;;4956259;28;20468;-64
2022/05/29 16:28:20;;;;;;;2.40;1.53;;;17.60;77.80;;;;;;4955863;29;20435;-64
2022/05/29 16:30:58;;;;;;;2.33;1.40;;;17.60;75.10;;;;;;4955967;28;20562;-63
2022/05/29 16:33:34;;;;;;;2.63;1.57;;;17.40;71.20;;;;;;4956068;29;20443;-63
2022/05/29 16:36:05;;;;;;;3.50;1.57;;;17.30;72.70;;;;;;4955765;29;20462;-63
2022/05/29 16:50:11;;;;;;;1.97;1.70;;;16.70;71.00;;;;;;4955858;29;20419;-62
2022/05/29 16:52:38;;;;;;;4.57;1.40;;;16.50;70.90;;;;;;4956374;28;20483;-62
2022/05/29 16:55:08;;;;;;;3.90;1.40;;;16.40;73.90;;;;;;4955146;29;20463;-62
2022/05/29 16:57:44;;;;;;;3.03;1.30;;;16.40;72.20;;;;;;4955516;29;20476;-62
2022/05/29 17:00:17;;;;;;;4.37;1.27;;;16.40;74.80;;;;;;4956882;28;20453;-64
2022/05/29 17:02:47;;;;;;;3.90;1.53;;;16.50;82.90;;;;;;4959250;29;20432;-62
2022/05/29 17:05:19;;;;;;;2.47;1.57;;;16.60;78.60;;;;;;4959397;29;20457;-63
2022/05/29 17:07:56;;;;;;;3.20;2.00;;;16.80;76.00;;;;;;4965194;29;20443;-63
2022/05/29 17:10:26;;;;;;;2.40;2.20;;;16.90;71.50;;;;;;4968647;28;20435;-63
2022/05/29 17:12:54;;;;;;;1.90;1.80;;;16.80;71.80;;;;;;4960228;28;20440;-63
2022/05/29 17:15:25;;;;;;;4.30;1.70;;;16.70;70.90;;;;;;4959212;28;20447;-64
2022/05/29 17:17:52;;;;;;;2.83;1.57;;;16.70;71.70;;;;;;4959093;29;20471;-63
2022/05/29 17:20:20;;;;;;;1.90;1.60;;;16.70;75.40;;;;;;4959072;28;20460;-63
2022/05/29 17:22:55;;;;;;;3.13;1.60;;;16.70;72.20;;;;;;4959242;29;20459;-63
2022/05/29 17:25:28;;;;;;;3.20;1.47;;;16.70;69.00;;;;;;4959019;29;20447;-64
2022/05/29 17:28:05;;;;;;;1.53;1.43;;;16.60;70.00;;;;;;4959078;29;20510;-63
2022/05/29 17:30:38;;;;;;;6.57;2.90;;;16.60;69.20;;;;;;4959756;28;20462;-63
2022/05/29 17:33:12;;;;;;;3.47;1.77;;;16.50;67.40;;;;;;4959063;29;20867;-64
2022/05/29 17:35:43;;;;;;;2.10;1.80;;;16.30;67.20;;;;;;4960661;29;20923;-66
2022/05/29 17:38:16;;;;;;;3.77;1.47;;;16.20;77.10;;;;;;4962008;29;20468;-67
2022/05/29 17:40:47;;;;;;;3.00;1.53;;;16.20;80.10;;;;;;4960863;28;20476;-67
2022/05/29 17:43:14;;;;;;;6.67;1.70;;;16.20;78.70;;;;;;4958857;29;20462;-67
2022/05/29 17:45:46;;;;;;;4.43;1.43;;;16.30;81.90;;;;;;4958629;28;20527;-64
2022/05/29 17:48:24;;;;;;;1.90;1.30;;;16.30;72.80;;;;;;4959384;29;20816;-64
2022/05/29 17:50:59;;;;;;;2.63;1.30;;;16.30;71.40;;;;;;4958331;28;20479;-63
2022/05/29 17:53:36;;;;;;;2.70;1.30;;;16.30;69.60;;;;;;4958372;29;20843;-64
2022/05/29 17:56:04;;;;;;;4.70;1.40;;;16.30;70.80;;;;;;4958474;29;20498;-63
2022/05/29 17:58:31;;;;;;;1.43;1.20;;;16.20;70.20;;;;;;4958167;29;20550;-64
2022/05/29 18:00:59;;;;;;;3.50;1.57;;;16.10;70.50;;;;;;4957924;28;20491;-64
2022/05/29 18:03:32;;;;;;;1.90;1.47;;;16.00;70.30;;;;;;4958169;29;20463;-63
2022/05/29 18:06:00;;;;;;;2.10;1.60;;;15.90;70.20;;;;;;4957766;29;20929;-64
2022/05/29 18:08:28;;;;;;;2.50;1.73;;;15.90;71.00;;;;;;4958055;29;20460;-65
2022/05/29 18:10:57;;;;;;;4.33;1.37;;;15.80;72.90;;;;;;4957941;28;20509;-65
2022/05/29 18:13:23;;;;;;;2.10;1.57;;;15.70;83.10;;;;;;4957588;29;20510;-64
2022/05/29 18:15:51;;;;;;;2.73;1.40;;;15.70;86.60;;;;;;4957886;29;20455;-65
2022/05/29 18:18:20;;;;;;;2.37;1.70;;;15.70;82.00;;;;;;4959045;28;20563;-65
2022/05/29 18:20:47;;;;;;;4.33;1.83;;;15.70;79.70;;;;;;4958197;28;20482;-64
2022/05/29 18:23:14;;;;;;;2.97;2.10;;;15.60;84.70;;;;;;4958013;29;20455;-64